Time;durP1;ratioP1;P1;durP2;ratioP2;P2;SDS_P1;SDS_P2;PMS_P1;PMS_P2;Temp;Humidity;BMP_temperature;BMP_pressure;BME280_temperature;BME280_humidity;BME280_pressure;Samples;Min_cycle;Max_cycle;Signal;HPM_P1;HPM_P2
2021/07/10 00:01:18;;;;;;;11.90;10.18;;;18.40;99.90;;;;;;5009616;28;20431;-93
2021/07/10 00:03:44;;;;;;;13.88;10.40;;;18.40;99.90;;;;;;5009779;28;20052;-93
2021/07/10 00:06:10;;;;;;;11.25;9.75;;;18.40;99.90;;;;;;5009595;28;20032;-93
2021/07/10 00:08:36;;;;;;;12.15;9.73;;;18.30;99.90;;;;;;5011324;28;20025;-93
2021/07/10 00:11:06;;;;;;;13.73;10.20;;;18.30;99.90;;;;;;5015396;28;20057;-93
2021/07/10 00:13:31;;;;;;;12.27;9.98;;;18.30;99.90;;;;;;5028460;28;20040;-94
2021/07/10 00:15:57;;;;;;;11.13;9.68;;;18.30;99.90;;;;;;5037102;28;20022;-95
2021/07/10 00:18:23;;;;;;;12.25;9.73;;;18.30;99.90;;;;;;5037178;28;20021;-95
2021/07/10 00:20:49;;;;;;;13.63;9.85;;;18.30;99.90;;;;;;5037139;28;20025;-94
2021/07/10 00:23:15;;;;;;;11.80;9.10;;;18.20;99.90;;;;;;5037214;28;20040;-95
2021/07/10 00:25:41;;;;;;;12.75;10.07;;;18.20;99.90;;;;;;5037162;28;20037;-95
2021/07/10 00:28:07;;;;;;;12.60;9.98;;;18.20;99.90;;;;;;5036945;28;20025;-95
2021/07/10 00:30:34;;;;;;;11.07;9.70;;;18.20;99.90;;;;;;5036866;28;20014;-95
2021/07/10 00:32:59;;;;;;;12.82;10.25;;;18.20;99.90;;;;;;5036913;28;20022;-95
2021/07/10 00:35:25;;;;;;;14.05;10.30;;;18.10;99.90;;;;;;5036681;28;20113;-96
2021/07/10 00:37:51;;;;;;;11.57;9.95;;;18.10;99.90;;;;;;5036842;28;20014;-95
2021/07/10 00:40:16;;;;;;;12.07;9.70;;;18.00;99.90;;;;;;5036735;28;20026;-94
2021/07/10 00:42:45;;;;;;;12.80;9.85;;;18.00;99.90;;;;;;5036604;28;20037;-95
2021/07/10 00:45:12;;;;;;;11.82;9.70;;;18.00;99.90;;;;;;5036710;28;20112;-95
2021/07/10 00:47:38;;;;;;;11.98;9.48;;;18.00;99.90;;;;;;5036543;28;20033;-95
2021/07/10 00:50:11;;;;;;;12.30;10.15;;;18.00;99.90;;;;;;5036734;28;20034;-93
2021/07/10 00:52:37;;;;;;;10.88;9.38;;;18.00;99.90;;;;;;5036629;28;20034;-94
2021/07/10 00:55:03;;;;;;;12.23;9.65;;;18.00;99.90;;;;;;5036619;28;20093;-93
2021/07/10 00:57:29;;;;;;;12.98;10.05;;;17.90;99.90;;;;;;5036459;28;20053;-95
2021/07/10 00:59:55;;;;;;;11.60;9.35;;;17.90;99.90;;;;;;5036106;28;20010;-95
2021/07/10 01:02:21;;;;;;;13.38;9.57;;;17.90;99.90;;;;;;5036353;28;20061;-95
2021/07/10 01:04:47;;;;;;;12.65;9.27;;;17.90;99.90;;;;;;5036878;28;20014;-94
2021/07/10 01:07:12;;;;;;;13.18;9.82;;;17.90;99.90;;;;;;5036641;28;20010;-96
2021/07/10 01:09:38;;;;;;;11.70;9.50;;;17.90;99.90;;;;;;5036738;28;20050;-95
2021/07/10 01:12:05;;;;;;;13.10;9.75;;;17.90;99.90;;;;;;5036605;28;20033;-95
2021/07/10 01:14:31;;;;;;;12.60;10.48;;;17.90;99.90;;;;;;5037028;28;20033;-93
2021/07/10 01:16:56;;;;;;;14.18;9.95;;;17.90;99.90;;;;;;5036556;28;20109;-95
2021/07/10 01:19:26;;;;;;;14.07;10.10;;;17.80;99.90;;;;;;5036454;28;20010;-95
2021/07/10 01:21:55;;;;;;;13.20;10.70;;;17.80;99.90;;;;;;5036366;28;20018;-95
2021/07/10 01:24:20;;;;;;;14.23;10.25;;;17.70;99.90;;;;;;5036817;28;20086;-94
2021/07/10 01:26:46;;;;;;;13.70;9.75;;;17.70;99.90;;;;;;5036425;28;20021;-95
2021/07/10 01:29:12;;;;;;;11.13;9.45;;;17.70;99.90;;;;;;5036392;28;20029;-95
2021/07/10 01:31:39;;;;;;;13.40;10.32;;;17.70;99.90;;;;;;5036279;28;20029;-95
2021/07/10 01:34:05;;;;;;;14.45;10.45;;;17.60;99.90;;;;;;5036302;28;20010;-95
2021/07/10 01:36:30;;;;;;;13.68;11.00;;;17.60;99.90;;;;;;5036130;28;20033;-95
2021/07/10 01:38:56;;;;;;;12.45;9.85;;;17.60;99.90;;;;;;5036464;28;20018;-94
2021/07/10 01:41:22;;;;;;;12.82;10.55;;;17.60;99.90;;;;;;5035961;28;20102;-94
2021/07/10 01:43:48;;;;;;;14.52;10.45;;;17.50;99.90;;;;;;5036027;28;20029;-96
2021/07/10 01:46:13;;;;;;;13.43;10.25;;;17.50;99.90;;;;;;5035838;28;20022;-96
2021/07/10 01:48:39;;;;;;;16.30;10.73;;;17.50;99.90;;;;;;5035900;28;20082;-95
2021/07/10 01:51:05;;;;;;;12.98;10.70;;;17.50;99.90;;;;;;5035825;28;20049;-95
2021/07/10 01:53:30;;;;;;;14.80;10.65;;;17.50;99.90;;;;;;5035986;28;20021;-94
2021/07/10 01:55:56;;;;;;;12.70;10.57;;;17.50;99.90;;;;;;5035666;28;20069;-95
2021/07/10 01:58:22;;;;;;;15.40;11.35;;;17.40;99.90;;;;;;5035808;28;20077;-95
2021/07/10 02:00:47;;;;;;;15.30;11.00;;;17.50;99.90;;;;;;5035340;28;20018;-95
2021/07/10 02:03:14;;;;;;;15.20;10.98;;;17.40;99.90;;;;;;5035506;28;20014;-95
2021/07/10 02:05:40;;;;;;;18.70;11.70;;;17.40;99.90;;;;;;5035339;28;20018;-95
2021/07/10 02:08:08;;;;;;;15.52;12.00;;;17.40;99.90;;;;;;5035258;28;20114;-95
2021/07/10 02:10:34;;;;;;;18.25;12.18;;;17.40;99.90;;;;;;5035184;28;20014;-96
2021/07/10 02:13:12;;;;;;;15.75;11.50;;;17.40;99.90;;;;;;5034941;28;20018;-95
2021/07/10 02:15:38;;;;;;;17.02;11.85;;;17.40;99.90;;;;;;5035142;28;20100;-95
2021/07/10 02:18:05;;;;;;;15.27;11.95;;;17.40;99.90;;;;;;5035029;28;20089;-95
2021/07/10 02:20:31;;;;;;;17.38;12.35;;;17.40;99.90;;;;;;5035053;28;20032;-95
2021/07/10 02:22:58;;;;;;;18.58;12.23;;;17.40;99.90;;;;;;5034822;28;20029;-95
2021/07/10 02:25:25;;;;;;;17.42;11.95;;;17.40;99.90;;;;;;5034320;28;20094;-95
2021/07/10 02:27:52;;;;;;;16.35;11.52;;;17.30;99.90;;;;;;5033909;28;20018;-95
2021/07/10 02:30:29;;;;;;;16.92;11.10;;;17.30;99.90;;;;;;5034725;28;20038;-95
2021/07/10 02:32:56;;;;;;;15.60;11.32;;;17.40;99.90;;;;;;5034306;28;20143;-95
2021/07/10 02:35:22;;;;;;;16.52;12.35;;;17.40;99.90;;;;;;5034761;28;20085;-95
2021/07/10 02:37:48;;;;;;;17.92;13.80;;;17.30;99.90;;;;;;5034631;28;20021;-94
2021/07/10 02:40:16;;;;;;;16.10;12.45;;;17.40;99.90;;;;;;5034557;28;20032;-95
2021/07/10 02:42:42;;;;;;;18.27;12.95;;;17.40;99.90;;;;;;5034743;28;20018;-95
2021/07/10 02:45:10;;;;;;;16.90;12.55;;;17.30;99.90;;;;;;5034757;28;20033;-96
2021/07/10 02:47:35;;;;;;;17.75;12.57;;;17.30;99.90;;;;;;5034462;28;20832;-95
2021/07/10 02:50:04;;;;;;;16.67;12.77;;;17.30;99.90;;;;;;5034682;28;20093;-94
2021/07/10 02:52:30;;;;;;;19.02;12.48;;;17.30;99.90;;;;;;5034546;28;20014;-94
2021/07/10 02:54:55;;;;;;;15.98;12.20;;;17.30;99.90;;;;;;5034638;28;20018;-94
2021/07/10 02:57:22;;;;;;;16.17;12.38;;;17.20;99.90;;;;;;5034649;28;20045;-95
2021/07/10 02:59:48;;;;;;;17.83;12.55;;;17.20;99.90;;;;;;5034730;28;20010;-95
2021/07/10 03:02:13;;;;;;;16.17;12.52;;;17.20;99.90;;;;;;5034664;28;20042;-95
2021/07/10 03:04:39;;;;;;;16.02;12.38;;;17.10;99.90;;;;;;5034681;28;20018;-94
2021/07/10 03:07:06;;;;;;;15.55;11.40;;;17.10;99.90;;;;;;5034424;28;20022;-94
2021/07/10 03:09:32;;;;;;;19.17;12.68;;;17.10;99.90;;;;;;5034531;28;20033;-94
2021/07/10 03:11:57;;;;;;;17.83;13.18;;;17.10;99.90;;;;;;5033791;28;20018;-91
2021/07/10 03:14:23;;;;;;;16.08;12.52;;;17.10;99.90;;;;;;5017531;28;20029;-92
2021/07/10 03:16:48;;;;;;;18.48;12.65;;;17.10;99.90;;;;;;5031072;28;20038;-93
2021/07/10 03:19:14;;;;;;;16.80;13.00;;;17.10;99.90;;;;;;5034284;28;20109;-94
2021/07/10 03:21:40;;;;;;;17.15;12.45;;;17.10;99.90;;;;;;5034888;28;20018;-94
2021/07/10 03:24:06;;;;;;;19.48;13.00;;;17.10;99.90;;;;;;5034813;28;20037;-94
2021/07/10 03:26:32;;;;;;;18.92;13.35;;;17.10;99.90;;;;;;5033998;28;20018;-94
2021/07/10 03:28:57;;;;;;;19.17;14.10;;;17.10;99.90;;;;;;5034482;28;20110;-96
2021/07/10 03:31:23;;;;;;;20.92;14.32;;;17.10;99.90;;;;;;5033144;28;20038;-91
2021/07/10 03:33:49;;;;;;;18.02;13.80;;;17.10;99.90;;;;;;5031721;28;20093;-93
2021/07/10 03:36:14;;;;;;;21.67;13.85;;;17.10;99.90;;;;;;5032384;28;20041;-93
2021/07/10 03:38:43;;;;;;;20.00;14.20;;;17.10;99.90;;;;;;5033718;28;20037;-94
2021/07/10 03:41:10;;;;;;;;;;;17.00;99.90;;;;;;5032916;28;20044;-93
2021/07/10 03:43:36;;;;;;;19.80;14.38;;;17.00;99.90;;;;;;5035696;28;19968;-93
2021/07/10 03:46:02;;;;;;;19.20;14.85;;;17.00;99.90;;;;;;5037957;28;20034;-94
2021/07/10 03:48:30;;;;;;;21.13;15.18;;;17.10;99.90;;;;;;5037902;28;20032;-93
2021/07/10 03:50:56;;;;;;;19.73;14.98;;;17.10;99.90;;;;;;5037362;28;20049;-95
2021/07/10 03:53:22;;;;;;;19.42;15.30;;;17.10;99.90;;;;;;5038068;28;20049;-93
2021/07/10 03:55:48;;;;;;;22.05;15.38;;;17.10;99.90;;;;;;5037543;28;20034;-94
2021/07/10 03:58:15;;;;;;;20.77;15.95;;;17.10;99.90;;;;;;5037330;28;20034;-92
2021/07/10 04:00:40;;;;;;;23.13;16.25;;;17.10;99.90;;;;;;5037690;28;20014;-94
2021/07/10 04:03:06;;;;;;;21.73;16.25;;;17.10;99.90;;;;;;5037357;28;20108;-94
2021/07/10 04:05:33;;;;;;;25.48;16.65;;;17.10;99.90;;;;;;5037578;28;20053;-94
2021/07/10 04:07:58;;;;;;;22.52;16.75;;;17.10;99.90;;;;;;5037773;28;20026;-95
2021/07/10 04:10:24;;;;;;;21.73;15.98;;;17.10;99.90;;;;;;5037505;28;20097;-93
2021/07/10 04:12:50;;;;;;;25.10;17.13;;;17.10;99.90;;;;;;5037334;28;20018;-92
2021/07/10 04:15:18;;;;;;;23.00;15.60;;;17.10;99.90;;;;;;5037418;28;20029;-94
2021/07/10 04:17:44;;;;;;;19.23;14.88;;;17.10;99.90;;;;;;5037312;28;20069;-93
2021/07/10 04:20:11;;;;;;;22.15;16.92;;;17.20;99.90;;;;;;5036863;28;20033;-94
2021/07/10 04:22:37;;;;;;;21.92;16.20;;;17.20;99.90;;;;;;5036994;28;20041;-94
2021/07/10 04:25:06;;;;;;;20.52;15.18;;;17.20;99.90;;;;;;5037048;28;20014;-94
2021/07/10 04:27:33;;;;;;;19.35;15.10;;;17.20;99.90;;;;;;5037179;28;20014;-94
2021/07/10 04:29:59;;;;;;;21.75;15.82;;;17.20;99.90;;;;;;5037139;28;20049;-94
2021/07/10 04:32:25;;;;;;;21.05;15.48;;;17.30;99.90;;;;;;5036027;28;20010;-93
2021/07/10 04:34:51;;;;;;;21.05;15.23;;;17.20;99.90;;;;;;5036643;28;20088;-94
2021/07/10 04:37:17;;;;;;;20.92;15.27;;;17.30;99.90;;;;;;5036941;28;20026;-94
2021/07/10 04:39:42;;;;;;;21.98;15.85;;;17.30;99.90;;;;;;5036945;28;20072;-95
2021/07/10 04:42:08;;;;;;;21.83;15.80;;;17.30;99.90;;;;;;5036998;28;20042;-94
2021/07/10 04:44:34;;;;;;;22.00;16.70;;;17.40;99.90;;;;;;5036692;28;20026;-94
2021/07/10 04:47:00;;;;;;;21.65;16.75;;;17.40;99.90;;;;;;5037071;28;20014;-95
2021/07/10 04:49:26;;;;;;;22.67;16.73;;;17.50;99.90;;;;;;5036883;28;20033;-94
2021/07/10 04:51:52;;;;;;;22.10;15.90;;;17.50;99.90;;;;;;5036378;28;20018;-95
2021/07/10 04:54:17;;;;;;;21.65;15.85;;;17.50;99.90;;;;;;5036070;28;20225;-94
2021/07/10 04:56:43;;;;;;;25.70;16.85;;;17.60;99.90;;;;;;5036436;28;20101;-94
2021/07/10 04:59:09;;;;;;;20.30;15.43;;;17.60;99.90;;;;;;5036420;28;20098;-94
2021/07/10 05:01:34;;;;;;;23.13;14.65;;;17.70;99.90;;;;;;5036684;28;20028;-94
2021/07/10 05:04:00;;;;;;;19.42;15.35;;;17.70;99.90;;;;;;5037455;28;20056;-92
2021/07/10 05:06:26;;;;;;;19.45;14.70;;;17.80;99.90;;;;;;5037014;28;20018;-93
2021/07/10 05:08:52;;;;;;;19.27;14.98;;;17.80;99.90;;;;;;5037633;28;20014;-94
2021/07/10 05:11:18;;;;;;;20.95;15.40;;;17.90;99.90;;;;;;5036646;28;20017;-94
2021/07/10 05:13:44;;;;;;;19.35;14.10;;;17.90;99.90;;;;;;5037126;28;20034;-95
2021/07/10 05:16:09;;;;;;;16.98;13.90;;;17.90;99.90;;;;;;5036638;28;20036;-94
2021/07/10 05:18:35;;;;;;;19.63;14.05;;;18.00;99.90;;;;;;5037025;28;20073;-95
2021/07/10 05:21:01;;;;;;;18.55;13.48;;;18.00;99.90;;;;;;5036461;28;20021;-95
2021/07/10 05:23:26;;;;;;;20.42;14.32;;;18.00;99.90;;;;;;5036809;28;20048;-94
2021/07/10 05:25:52;;;;;;;19.98;14.05;;;18.00;99.90;;;;;;5036555;28;20018;-95
2021/07/10 05:28:17;;;;;;;20.33;14.75;;;18.00;99.90;;;;;;5036646;28;20042;-94
2021/07/10 05:30:43;;;;;;;21.65;14.00;;;18.10;99.90;;;;;;5036580;28;20033;-94
2021/07/10 05:43:24;;;;;;;19.77;13.85;;;18.30;99.90;;;;;;5051182;28;20052;-91
2021/07/10 05:45:53;;;;;;;19.60;13.73;;;18.30;99.90;;;;;;5051071;28;20485;-88
2021/07/10 05:48:19;;;;;;;18.25;13.20;;;18.40;99.90;;;;;;5058391;28;20025;-89
2021/07/10 05:50:45;;;;;;;19.65;13.65;;;18.40;99.90;;;;;;5062572;28;20028;-89
2021/07/10 05:53:11;;;;;;;17.48;13.15;;;18.40;99.90;;;;;;5060425;28;20025;-88
2021/07/10 05:55:37;;;;;;;18.10;13.43;;;18.40;99.90;;;;;;5053123;28;20039;-88
2021/07/10 05:58:08;;;;;;;16.80;13.27;;;18.40;99.90;;;;;;5051588;28;20021;-88
2021/07/10 06:00:34;;;;;;;19.48;13.77;;;18.50;99.90;;;;;;5053509;28;20025;-89
2021/07/10 06:03:01;;;;;;;18.33;13.05;;;18.50;99.90;;;;;;5059537;28;20025;-88
2021/07/10 06:05:27;;;;;;;17.63;13.70;;;18.50;99.90;;;;;;5059713;28;20032;-88
2021/07/10 06:07:53;;;;;;;21.52;12.30;;;18.60;99.90;;;;;;5064567;28;20029;-88
2021/07/10 06:10:21;;;;;;;17.40;12.60;;;18.60;99.90;;;;;;5046176;28;20044;-87
2021/07/10 06:12:50;;;;;;;17.42;13.05;;;18.60;99.90;;;;;;5058749;28;20028;-88
2021/07/10 06:15:24;;;;;;;19.42;12.00;;;18.60;99.90;;;;;;5056915;28;20041;-88
2021/07/10 06:17:50;;;;;;;14.85;11.68;;;18.60;99.90;;;;;;5050448;28;20124;-88
2021/07/10 06:20:17;;;;;;;16.08;12.25;;;18.70;99.90;;;;;;5051594;28;20516;-88
2021/07/10 06:22:45;;;;;;;19.95;13.85;;;18.70;99.90;;;;;;5050476;28;20125;-86
2021/07/10 06:25:12;;;;;;;18.83;12.85;;;18.80;99.90;;;;;;5052348;28;20100;-87
2021/07/10 06:27:38;;;;;;;17.90;12.90;;;18.80;99.90;;;;;;5050859;28;20668;-87
2021/07/10 06:30:09;;;;;;;16.17;12.27;;;18.80;99.90;;;;;;5055141;28;20111;-87
2021/07/10 06:32:35;;;;;;;17.00;12.57;;;18.90;99.90;;;;;;5057754;28;20017;-86
2021/07/10 06:35:00;;;;;;;15.80;11.73;;;18.90;99.90;;;;;;5056090;28;20445;-87
2021/07/10 06:37:26;;;;;;;15.43;11.40;;;18.90;99.90;;;;;;5052235;28;20060;-87
2021/07/10 06:39:52;;;;;;;15.88;10.90;;;19.00;99.90;;;;;;5049638;28;20021;-86
2021/07/10 06:42:19;;;;;;;16.55;11.70;;;19.00;99.90;;;;;;5049914;28;20059;-87
2021/07/10 06:44:46;;;;;;;17.70;12.07;;;19.10;99.90;;;;;;5049659;28;20029;-87
2021/07/10 06:47:12;;;;;;;15.20;10.55;;;19.10;99.90;;;;;;5050836;28;20025;-87
2021/07/10 06:49:37;;;;;;;15.68;10.32;;;19.20;99.90;;;;;;5048833;28;20044;-86
2021/07/10 06:52:04;;;;;;;17.25;10.50;;;19.20;99.90;;;;;;5049003;28;20033;-87
2021/07/10 06:54:29;;;;;;;16.90;12.48;;;19.20;99.90;;;;;;5049369;28;20029;-87
2021/07/10 06:56:55;;;;;;;14.40;11.00;;;19.20;99.90;;;;;;5050402;28;20032;-86
2021/07/10 06:59:20;;;;;;;17.00;12.30;;;19.20;99.90;;;;;;5048739;28;20029;-87
2021/07/10 07:01:50;;;;;;;14.57;10.40;;;19.30;99.90;;;;;;5050328;28;20436;-87
2021/07/10 07:04:19;;;;;;;14.73;10.52;;;19.30;99.90;;;;;;5050461;28;20497;-87
2021/07/10 07:06:45;;;;;;;;;;;19.30;99.90;;;;;;5050753;28;20095;-85
2021/07/10 07:09:11;;;;;;;15.10;10.82;;;19.30;99.90;;;;;;5049425;28;20322;-85
2021/07/10 07:11:37;;;;;;;16.42;11.63;;;19.30;99.90;;;;;;5049729;28;20033;-85
2021/07/10 07:14:03;;;;;;;14.52;10.45;;;19.40;99.90;;;;;;5051048;28;20035;-85
2021/07/10 07:16:28;;;;;;;14.43;10.18;;;19.40;99.90;;;;;;5051795;28;20028;-85
2021/07/10 07:18:54;;;;;;;13.23;9.82;;;19.40;99.90;;;;;;5050003;28;20040;-85
2021/07/10 07:21:20;;;;;;;15.63;10.80;;;19.40;99.90;;;;;;5051076;28;20139;-86
2021/07/10 07:23:45;;;;;;;14.70;11.23;;;19.50;99.90;;;;;;5050906;28;20355;-85
2021/07/10 07:26:11;;;;;;;15.30;11.40;;;19.50;99.90;;;;;;5050940;28;20528;-85
2021/07/10 07:28:37;;;;;;;15.57;10.80;;;19.60;99.90;;;;;;5050690;28;20167;-85
2021/07/10 07:31:03;;;;;;;12.77;9.60;;;19.60;99.90;;;;;;5051483;28;20497;-85
2021/07/10 07:33:30;;;;;;;12.82;9.77;;;19.60;99.90;;;;;;5049352;28;20033;-85
2021/07/10 07:35:56;;;;;;;14.32;10.55;;;19.60;99.90;;;;;;5050108;28;20025;-85
2021/07/10 07:38:22;;;;;;;14.18;9.88;;;19.60;99.90;;;;;;5054297;28;20021;-86
2021/07/10 07:40:48;;;;;;;14.95;9.98;;;19.60;99.90;;;;;;5052213;28;20133;-86
2021/07/10 07:43:14;;;;;;;14.75;10.18;;;19.70;99.90;;;;;;5042211;28;20045;-86
2021/07/10 07:45:39;;;;;;;12.57;9.23;;;19.70;99.90;;;;;;5030508;28;20095;-88
2021/07/10 07:48:05;;;;;;;12.07;9.57;;;19.70;99.80;;;;;;5047285;28;20036;-88
2021/07/10 07:50:31;;;;;;;17.38;10.68;;;19.70;99.50;;;;;;5049427;28;20174;-88
2021/07/10 07:52:57;;;;;;;13.75;9.50;;;19.70;99.40;;;;;;5049395;28;20025;-87
2021/07/10 07:55:22;;;;;;;14.48;10.43;;;19.80;99.50;;;;;;5050923;28;20040;-88
2021/07/10 07:57:49;;;;;;;16.40;10.75;;;19.80;99.10;;;;;;5049646;28;20104;-87
2021/07/10 08:00:19;;;;;;;12.57;9.02;;;19.80;98.80;;;;;;5048607;28;20055;-88
2021/07/10 08:02:46;;;;;;;13.13;9.35;;;19.80;98.90;;;;;;5052258;28;20021;-87
2021/07/10 08:05:13;;;;;;;12.40;8.43;;;19.90;98.90;;;;;;5049696;28;20029;-85
2021/07/10 08:07:38;;;;;;;12.45;8.68;;;19.90;99.00;;;;;;5049464;28;20086;-87
2021/07/10 08:10:06;;;;;;;15.50;9.57;;;19.90;99.00;;;;;;5049694;28;20033;-87
2021/07/10 08:12:32;;;;;;;12.07;8.88;;;20.00;98.70;;;;;;5054206;28;20057;-93
2021/07/10 08:14:58;;;;;;;14.73;9.70;;;20.00;98.50;;;;;;5050887;28;20101;-87
2021/07/10 08:17:24;;;;;;;14.15;9.20;;;20.10;98.60;;;;;;5050174;28;20458;-89
2021/07/10 08:20:03;;;;;;;18.85;10.90;;;20.10;98.50;;;;;;5052121;28;20021;-92
2021/07/10 08:22:30;;;;;;;16.00;10.20;;;20.20;98.30;;;;;;5055275;28;20600;-88
2021/07/10 08:24:58;;;;;;;15.98;10.77;;;20.20;98.20;;;;;;5053251;28;20036;-91
2021/07/10 08:27:24;;;;;;;15.10;9.68;;;20.30;98.20;;;;;;5052627;28;20470;-90
2021/07/10 08:29:49;;;;;;;15.55;9.23;;;20.30;97.70;;;;;;5052281;28;20027;-90
2021/07/10 08:32:15;;;;;;;13.20;8.70;;;20.30;97.20;;;;;;5054215;28;20405;-89
2021/07/10 08:34:41;;;;;;;11.45;8.02;;;20.30;97.50;;;;;;5054346;28;20025;-87
2021/07/10 08:37:07;;;;;;;12.40;8.43;;;20.40;97.70;;;;;;5055039;28;20049;-88
2021/07/10 08:39:33;;;;;;;15.52;8.77;;;20.40;97.30;;;;;;5055022;28;20032;-86
2021/07/10 08:41:59;;;;;;;13.95;8.25;;;20.50;96.80;;;;;;5054311;28;20033;-86
2021/07/10 08:44:26;;;;;;;13.18;8.25;;;20.50;96.70;;;;;;5054703;28;20312;-88
2021/07/10 08:46:53;;;;;;;12.40;7.93;;;20.60;96.80;;;;;;5057788;28;20029;-90
2021/07/10 08:49:19;;;;;;;14.13;8.13;;;20.50;96.80;;;;;;5056272;28;20119;-90
2021/07/10 08:51:48;;;;;;;15.15;9.35;;;20.60;96.50;;;;;;5050352;28;20025;-84
2021/07/10 08:54:17;;;;;;;13.23;8.50;;;20.60;96.30;;;;;;5051314;28;20036;-83
2021/07/10 08:56:44;;;;;;;13.38;8.05;;;20.60;96.10;;;;;;5050984;28;20029;-84
2021/07/10 08:59:11;;;;;;;12.70;8.18;;;20.70;96.30;;;;;;5050572;28;20036;-83
2021/07/10 09:01:37;;;;;;;11.70;7.50;;;20.70;96.00;;;;;;5051919;28;20029;-84
2021/07/10 09:04:03;;;;;;;13.27;7.57;;;20.70;96.30;;;;;;5051167;28;20027;-84
2021/07/10 09:06:28;;;;;;;12.63;7.60;;;20.80;96.10;;;;;;5051443;28;20035;-84
2021/07/10 09:08:57;;;;;;;12.00;7.57;;;20.80;96.00;;;;;;5052469;28;20043;-84
2021/07/10 09:11:24;;;;;;;10.07;7.32;;;20.90;96.00;;;;;;5050913;28;20059;-84
2021/07/10 09:13:54;;;;;;;14.02;7.97;;;20.90;95.70;;;;;;5052583;28;20426;-83
2021/07/10 09:16:29;;;;;;;11.50;7.40;;;20.90;94.60;;;;;;5050533;28;20062;-84
2021/07/10 09:18:56;;;;;;;9.93;7.68;;;21.00;94.70;;;;;;5050443;28;20063;-84
2021/07/10 09:21:43;;;;;;;11.55;6.80;;;21.00;95.00;;;;;;5049456;28;20127;-84
2021/07/10 09:24:14;;;;;;;12.13;7.68;;;21.00;95.00;;;;;;5052376;28;20048;-84
2021/07/10 09:26:48;;;;;;;10.48;7.45;;;21.10;94.80;;;;;;5051758;28;20108;-84
2021/07/10 09:29:16;;;;;;;10.63;7.28;;;21.10;94.60;;;;;;5050061;28;20036;-84
2021/07/10 09:31:52;;;;;;;12.45;7.80;;;21.10;94.20;;;;;;5050081;28;20029;-84
2021/07/10 09:34:20;;;;;;;12.27;7.68;;;21.20;93.80;;;;;;5052036;28;20029;-84
2021/07/10 09:37:09;;;;;;;14.40;8.60;;;21.20;93.60;;;;;;5049203;28;20481;-83
2021/07/10 09:39:43;;;;;;;15.48;7.93;;;21.20;93.40;;;;;;5050034;28;20497;-84
2021/07/10 09:42:13;;;;;;;11.57;7.20;;;21.20;93.20;;;;;;5051502;28;20645;-84
2021/07/10 09:44:39;;;;;;;11.55;7.38;;;21.20;93.60;;;;;;5050337;28;20025;-84
2021/07/10 09:47:05;;;;;;;9.80;6.90;;;21.20;93.50;;;;;;5051366;28;20103;-84
2021/07/10 09:49:32;;;;;;;11.57;7.25;;;21.20;93.90;;;;;;5050984;28;20109;-84
2021/07/10 09:52:31;;;;;;;10.75;6.75;;;21.20;93.90;;;;;;5048569;28;20417;-84
2021/07/10 09:55:10;;;;;;;11.88;7.75;;;21.20;94.00;;;;;;5017345;28;20047;-84
2021/07/10 09:57:38;;;;;;;10.80;6.75;;;21.30;94.00;;;;;;5049862;28;20502;-84
2021/07/10 10:00:14;;;;;;;11.73;6.25;;;21.30;93.90;;;;;;5050716;28;20083;-84
2021/07/10 10:02:54;;;;;;;10.20;6.32;;;21.30;94.40;;;;;;5050953;28;20374;-84
2021/07/10 10:05:31;;;;;;;11.57;6.38;;;21.30;94.30;;;;;;5049913;28;20090;-84
2021/07/10 10:08:02;;;;;;;13.52;8.23;;;21.30;93.90;;;;;;5049885;28;20096;-84
2021/07/10 10:10:36;;;;;;;11.93;8.75;;;21.40;93.30;;;;;;5049164;28;20036;-84
2021/07/10 10:13:04;;;;;;;15.13;7.80;;;21.40;93.30;;;;;;5049455;28;20449;-84
2021/07/10 10:15:31;;;;;;;12.85;7.82;;;21.40;93.30;;;;;;5051048;28;20453;-84
2021/07/10 10:17:58;;;;;;;9.00;6.32;;;21.40;93.20;;;;;;5050816;28;20158;-84
2021/07/10 10:20:24;;;;;;;10.68;6.65;;;21.40;93.30;;;;;;5049110;28;20017;-84
2021/07/10 10:22:50;;;;;;;12.88;7.30;;;21.50;93.30;;;;;;5050176;28;20538;-84
2021/07/10 10:25:16;;;;;;;10.45;6.10;;;21.40;93.40;;;;;;5050986;28;20021;-84
2021/07/10 10:27:49;;;;;;;10.88;6.30;;;21.40;93.30;;;;;;5050731;28;20330;-84
2021/07/10 10:30:16;;;;;;;9.85;5.97;;;21.50;93.30;;;;;;5049016;28;20021;-84
2021/07/10 10:32:45;;;;;;;8.75;6.30;;;21.40;93.30;;;;;;5049150;28;20112;-84
2021/07/10 10:35:12;;;;;;;10.00;5.97;;;21.50;93.50;;;;;;5049875;28;20031;-84
2021/07/10 10:37:38;;;;;;;10.75;6.78;;;21.50;93.30;;;;;;5048194;28;20079;-84
2021/07/10 10:40:24;;;;;;;11.88;7.10;;;21.50;93.00;;;;;;5048911;28;20052;-84
2021/07/10 10:42:56;;;;;;;8.80;5.95;;;21.60;92.60;;;;;;5050642;28;20033;-84
2021/07/10 10:45:33;;;;;;;9.38;6.30;;;21.60;92.60;;;;;;5049478;28;20029;-84
2021/07/10 10:48:00;;;;;;;9.05;6.55;;;21.50;92.60;;;;;;5050371;28;20143;-84
2021/07/10 10:50:35;;;;;;;9.30;6.28;;;21.50;92.80;;;;;;5048688;28;20025;-84
2021/07/10 10:53:01;;;;;;;9.85;6.10;;;21.50;93.00;;;;;;5047247;28;20025;-84
2021/07/10 10:55:33;;;;;;;9.38;5.65;;;21.50;92.90;;;;;;5050560;28;20036;-84
2021/07/10 10:58:01;;;;;;;12.50;6.00;;;21.60;93.00;;;;;;5048847;28;20017;-84
2021/07/10 11:00:38;;;;;;;10.45;5.97;;;21.60;92.40;;;;;;5048269;28;20021;-84
2021/07/10 11:03:19;;;;;;;9.80;5.78;;;21.60;92.50;;;;;;5048811;28;20044;-84
2021/07/10 11:05:56;;;;;;;8.35;5.22;;;21.60;92.70;;;;;;5050403;28;20039;-84
2021/07/10 11:08:29;;;;;;;7.55;5.13;;;21.60;92.70;;;;;;5048657;28;20112;-84
2021/07/10 11:10:58;;;;;;;8.93;5.53;;;21.70;93.10;;;;;;5049992;28;20436;-84
2021/07/10 11:13:27;;;;;;;7.80;5.63;;;21.70;93.00;;;;;;5050499;28;20025;-84
2021/07/10 11:16:16;;;;;;;8.50;5.25;;;21.70;93.20;;;;;;5048583;28;20476;-85
2021/07/10 11:18:49;;;;;;;7.80;5.45;;;21.70;93.40;;;;;;5050257;28;20104;-84
2021/07/10 11:21:37;;;;;;;9.90;5.72;;;21.80;93.50;;;;;;5048365;28;20025;-84
2021/07/10 11:26:56;;;;;;;7.60;4.93;;;21.80;92.50;;;;;;5049885;28;19928;-84
2021/07/10 11:29:41;;;;;;;7.25;5.13;;;21.80;92.60;;;;;;5049958;28;20025;-84
2021/07/10 11:32:15;;;;;;;9.27;6.05;;;21.80;92.70;;;;;;5049776;28;20124;-84
2021/07/10 11:34:44;;;;;;;8.15;5.00;;;21.70;92.80;;;;;;5050701;28;20025;-84
2021/07/10 11:37:15;;;;;;;10.18;5.30;;;21.70;92.90;;;;;;5047398;28;20132;-84
2021/07/10 11:39:54;;;;;;;8.63;5.35;;;21.70;93.20;;;;;;5048220;28;20025;-84
2021/07/10 11:42:21;;;;;;;7.47;5.25;;;21.70;92.30;;;;;;5049500;28;20104;-84
2021/07/10 11:44:52;;;;;;;6.80;4.78;;;21.80;92.40;;;;;;5048800;28;20013;-84
2021/07/10 11:47:31;;;;;;;6.80;4.97;;;21.90;92.60;;;;;;5048401;28;20166;-84
2021/07/10 11:50:00;;;;;;;;;;;22.00;92.10;;;;;;5048498;28;20052;-84
2021/07/10 11:52:26;;;;;;;7.43;5.57;;;22.00;91.90;;;;;;5048511;28;19904;-84
2021/07/10 11:54:57;;;;;;;7.43;4.95;;;22.10;92.20;;;;;;5050078;28;20430;-84
2021/07/10 11:57:26;;;;;;;10.75;6.10;;;22.20;92.10;;;;;;5048269;28;20029;-84
2021/07/10 11:59:53;;;;;;;8.40;5.38;;;22.20;91.30;;;;;;5049344;28;20159;-84
2021/07/10 12:02:28;;;;;;;8.82;5.80;;;22.20;91.20;;;;;;5049349;28;20032;-83
2021/07/10 12:05:07;;;;;;;7.43;5.30;;;22.20;91.00;;;;;;5050394;28;20017;-84
2021/07/10 12:07:42;;;;;;;7.82;5.45;;;22.20;91.30;;;;;;5052233;28;20425;-84
2021/07/10 12:10:12;;;;;;;8.70;5.60;;;22.10;91.50;;;;;;5051464;28;20048;-84
2021/07/10 12:12:45;;;;;;;7.28;5.45;;;22.10;91.90;;;;;;5051583;28;20021;-84
2021/07/10 12:15:14;;;;;;;7.03;4.70;;;22.00;92.00;;;;;;5052193;28;20060;-84
2021/07/10 12:17:44;;;;;;;6.63;4.82;;;21.90;91.90;;;;;;5053966;28;20021;-84
2021/07/10 12:20:24;;;;;;;8.55;5.50;;;21.80;92.20;;;;;;5052313;28;20021;-84
2021/07/10 12:23:05;;;;;;;7.13;4.80;;;21.70;91.90;;;;;;5051925;28;20021;-84
2021/07/10 12:26:02;;;;;;;8.68;5.07;;;21.70;91.80;;;;;;5057268;28;20402;-84
2021/07/10 12:28:34;;;;;;;7.35;5.80;;;21.60;92.10;;;;;;5046073;28;20381;-84
2021/07/10 12:31:03;;;;;;;7.60;5.30;;;21.60;92.20;;;;;;5052390;28;20429;-84
2021/07/10 12:33:36;;;;;;;6.53;4.93;;;21.60;91.90;;;;;;5054630;28;20031;-84
2021/07/10 12:36:16;;;;;;;7.10;5.13;;;21.60;92.10;;;;;;5052206;28;20044;-83
2021/07/10 12:39:03;;;;;;;8.35;5.30;;;21.50;92.20;;;;;;5053563;28;20025;-84
2021/07/10 12:41:31;;;;;;;11.02;7.03;;;21.50;92.00;;;;;;5052893;28;20032;-83
2021/07/10 12:44:28;;;;;;;9.57;6.30;;;21.60;91.80;;;;;;5054052;28;20567;-83
2021/07/10 12:46:58;;;;;;;9.27;5.80;;;21.60;92.10;;;;;;5052391;28;20028;-83
2021/07/10 12:49:46;;;;;;;10.82;6.55;;;21.70;92.10;;;;;;5053047;28;20031;-84
2021/07/10 12:52:26;;;;;;;10.27;6.75;;;21.80;91.60;;;;;;5051422;28;20115;-83